Time;durP1;ratioP1;P1;durP2;ratioP2;P2;SDS_P1;SDS_P2;PMS_P1;PMS_P2;Temp;Humidity;BMP_temperature;BMP_pressure;BME280_temperature;BME280_humidity;BME280_pressure;Samples;Min_cycle;Max_cycle;Signal;HPM_P1;HPM_P2
2021/04/20 00:01:04;;;;;;;30.20;15.17;;;;;;;;;;6122427;23;20184;-91
2021/04/20 00:04:10;;;;;;;31.20;15.00;;;;;;;;;;6122573;23;20198;-91
2021/04/20 00:07:15;;;;;;;33.27;15.13;;;;;;;;;;6122349;23;20652;-90
2021/04/20 00:10:20;;;;;;;30.47;14.93;;;;;;;;;;6121562;23;20190;-90
2021/04/20 00:13:24;;;;;;;28.27;14.23;;;;;;;;;;6121903;23;20165;-90
2021/04/20 00:16:29;;;;;;;26.17;13.77;;;;;;;;;;6119761;23;20218;-91
2021/04/20 00:19:34;;;;;;;30.17;15.30;;;;;;;;;;6120585;23;20194;-89
2021/04/20 00:22:39;;;;;;;31.07;14.93;;;;;;;;;;6122544;23;20157;-90
2021/04/20 00:25:44;;;;;;;31.83;15.30;;;;;;;;;;6123401;23;20209;-88
2021/04/20 00:28:49;;;;;;;31.63;16.10;;;;;;;;;;6122103;23;20244;-90
2021/04/20 00:31:54;;;;;;;30.67;15.30;;;;;;;;;;6120920;23;20161;-88
2021/04/20 00:35:00;;;;;;;33.07;15.83;;;;;;;;;;6121347;23;20177;-90
2021/04/20 00:38:04;;;;;;;33.87;17.07;;;;;;;;;;6122315;23;20466;-89
2021/04/20 00:41:10;;;;;;;35.93;16.40;;;;;;;;;;6122742;23;20205;-90
2021/04/20 00:44:15;;;;;;;30.50;14.73;;;;;;;;;;6122308;23;20172;-89
2021/04/20 00:47:20;;;;;;;30.37;14.70;;;;;;;;;;6121981;23;20176;-89
2021/04/20 00:50:28;;;;;;;29.40;14.77;;;;;;;;;;6123175;23;20202;-90
2021/04/20 00:53:32;;;;;;;32.50;15.00;;;;;;;;;;6122764;23;20621;-91
2021/04/20 00:56:37;;;;;;;31.37;15.50;;;;;;;;;;6122049;23;20207;-91
2021/04/20 00:59:42;;;;;;;34.20;15.03;;;;;;;;;;6140914;23;20174;-91
2021/04/20 01:02:47;;;;;;;31.80;14.83;;;;;;;;;;6121782;23;20205;-89
2021/04/20 01:05:53;;;;;;;32.37;15.37;;;;;;;;;;6121190;23;20224;-90
2021/04/20 01:08:58;;;;;;;31.10;15.13;;;;;;;;;;6121332;23;20182;-92
2021/04/20 01:12:03;;;;;;;29.50;14.83;;;;;;;;;;6121093;23;20285;-90
2021/04/20 01:15:08;;;;;;;30.20;14.77;;;;;;;;;;6120005;23;20174;-89
2021/04/20 01:18:13;;;;;;;32.60;16.10;;;;;;;;;;6119065;23;20209;-91
2021/04/20 01:21:19;;;;;;;30.47;14.00;;;;;;;;;;6122242;23;20173;-90
2021/04/20 01:24:26;;;;;;;31.67;14.83;;;;;;;;;;6122776;23;20169;-92
2021/04/20 01:27:31;;;;;;;33.17;15.20;;;;;;;;;;6123549;23;20688;-92
2021/04/20 01:30:36;;;;;;;28.83;13.73;;;;;;;;;;6125086;23;20152;-92
2021/04/20 01:33:42;;;;;;;31.63;15.27;;;;;;;;;;6130927;23;20497;-91
2021/04/20 01:36:48;;;;;;;27.47;14.37;;;;;;;;;;6123595;23;20177;-90
2021/04/20 01:39:53;;;;;;;32.37;15.63;;;;;;;;;;6122581;23;20169;-91
2021/04/20 01:42:58;;;;;;;30.73;14.97;;;;;;;;;;6122676;23;20189;-90
2021/04/20 01:46:02;;;;;;;27.70;14.57;;;;;;;;;;6123611;23;20181;-92
2021/04/20 01:49:07;;;;;;;32.37;14.57;;;;;;;;;;6122452;23;20168;-90
2021/04/20 01:52:12;;;;;;;26.27;13.70;;;;;;;;;;6122980;23;20165;-89
2021/04/20 01:55:18;;;;;;;30.73;14.80;;;;;;;;;;6123547;23;20221;-90
2021/04/20 01:58:23;;;;;;;34.97;16.20;;;;;;;;;;6123589;23;20200;-91
2021/04/20 02:01:28;;;;;;;32.30;15.43;;;;;;;;;;6123957;23;20201;-91
2021/04/20 02:04:32;;;;;;;34.20;16.10;;;;;;;;;;6124847;23;20172;-93
2021/04/20 02:07:38;;;;;;;35.07;16.47;;;;;;;;;;6122467;23;20172;-91
2021/04/20 02:10:44;;;;;;;29.10;14.73;;;;;;;;;;6123925;23;20194;-90
2021/04/20 02:13:48;;;;;;;32.63;16.37;;;;;;;;;;6123173;23;20177;-91
2021/04/20 02:16:54;;;;;;;31.63;15.27;;;;;;;;;;6124495;23;20157;-91
2021/04/20 02:19:58;;;;;;;26.87;14.73;;;;;;;;;;6124260;23;20197;-92
2021/04/20 02:23:03;;;;;;;34.30;16.23;;;;;;;;;;6124747;23;20173;-91
2021/04/20 02:26:12;;;;;;;31.90;15.93;;;;;;;;;;6123587;23;20173;-91
2021/04/20 02:29:17;;;;;;;31.67;15.90;;;;;;;;;;6123169;23;20168;-92
2021/04/20 02:32:21;;;;;;;32.47;16.07;;;;;;;;;;6122670;23;20222;-90
2021/04/20 02:35:28;;;;;;;33.30;15.80;;;;;;;;;;6123815;23;20182;-91
2021/04/20 02:38:34;;;;;;;33.03;15.80;;;;;;;;;;6122723;23;20685;-91
2021/04/20 02:41:41;;;;;;;36.80;17.23;;;;;;;;;;6122732;23;20285;-90
2021/04/20 02:44:46;;;;;;;34.90;17.73;;;;;;;;;;6122269;23;20165;-91
2021/04/20 02:47:50;;;;;;;35.23;17.30;;;;;;;;;;6122684;23;20497;-91
2021/04/20 02:50:55;;;;;;;33.87;16.83;;;;;;;;;;6123693;23;20170;-90
2021/04/20 02:54:00;;;;;;;33.70;17.33;;;;;;;;;;6123755;23;20165;-91
2021/04/20 02:57:06;;;;;;;37.90;17.33;;;;;;;;;;6122726;23;20161;-90
2021/04/20 03:00:12;;;;;;;34.70;17.57;;;;;;;;;;6123072;23;20169;-90
2021/04/20 03:03:18;;;;;;;35.57;17.43;;;;;;;;;;6122851;23;20212;-91
2021/04/20 03:06:22;;;;;;;30.77;16.43;;;;;;;;;;6124115;23;20190;-91
2021/04/20 03:09:27;;;;;;;35.43;17.57;;;;;;;;;;6123159;23;20193;-91
2021/04/20 03:12:33;;;;;;;34.27;16.97;;;;;;;;;;6123586;23;20169;-90
2021/04/20 03:15:38;;;;;;;35.23;17.03;;;;;;;;;;6123227;23;20182;-90
2021/04/20 03:18:43;;;;;;;36.93;17.33;;;;;;;;;;6124673;23;20200;-92
2021/04/20 03:21:48;;;;;;;39.53;17.53;;;;;;;;;;6123534;23;20169;-92
2021/04/20 03:25:11;;;;;;;38.07;16.80;;;;;;;;;;6123039;23;20502;-89
2021/04/20 03:28:18;;;;;;;34.63;16.73;;;;;;;;;;6121261;23;20197;-91
2021/04/20 03:31:23;;;;;;;37.47;18.47;;;;;;;;;;6121898;23;20178;-92
2021/04/20 03:34:31;;;;;;;34.40;16.50;;;;;;;;;;6121943;23;20161;-90
2021/04/20 03:37:38;;;;;;;35.20;17.13;;;;;;;;;;6121432;23;20244;-93
2021/04/20 03:40:47;;;;;;;39.90;17.73;;;;;;;;;;6122902;23;20182;-91
2021/04/20 03:43:56;;;;;;;40.53;18.43;;;;;;;;;;6121885;23;20173;-91
2021/04/20 03:47:03;;;;;;;43.13;19.83;;;;;;;;;;6121829;23;20165;-91
2021/04/20 03:50:09;;;;;;;39.47;19.33;;;;;;;;;;6124277;23;20518;-90
2021/04/20 03:53:17;;;;;;;45.13;20.87;;;;;;;;;;6123513;23;20238;-90
2021/04/20 03:56:24;;;;;;;47.30;20.90;;;;;;;;;;6124170;23;20174;-92
2021/04/20 03:59:30;;;;;;;46.70;22.10;;;;;;;;;;6122003;23;20161;-91
2021/04/20 04:02:37;;;;;;;50.20;22.43;;;;;;;;;;6120100;23;20180;-90
2021/04/20 04:05:49;;;;;;;44.60;21.73;;;;;;;;;;6121802;23;20174;-90
2021/04/20 04:08:54;;;;;;;45.07;21.90;;;;;;;;;;6122782;23;20253;-89
2021/04/20 04:12:02;;;;;;;49.63;23.27;;;;;;;;;;6122312;23;20212;-91
2021/04/20 04:15:10;;;;;;;46.83;21.97;;;;;;;;;;6140364;23;20173;-90
2021/04/20 04:18:15;;;;;;;47.83;23.07;;;;;;;;;;6121047;23;20258;-90
2021/04/20 04:21:22;;;;;;;53.83;24.00;;;;;;;;;;6122595;23;20197;-90
2021/04/20 04:24:30;;;;;;;51.17;24.03;;;;;;;;;;6124080;23;20152;-91
2021/04/20 04:27:36;;;;;;;51.37;23.20;;;;;;;;;;6125021;23;20173;-92
2021/04/20 04:30:43;;;;;;;51.37;23.77;;;;;;;;;;6140450;23;20181;-91
2021/04/20 04:33:48;;;;;;;48.57;23.30;;;;;;;;;;6123759;23;20153;-90
2021/04/20 04:36:53;;;;;;;52.10;23.30;;;;;;;;;;6123327;23;20161;-91
2021/04/20 04:40:00;;;;;;;47.13;22.97;;;;;;;;;;6122511;23;20636;-92
2021/04/20 04:43:05;;;;;;;45.70;22.20;;;;;;;;;;6122775;23;20193;-91
2021/04/20 04:46:11;;;;;;;49.03;22.80;;;;;;;;;;6123224;23;20209;-90
2021/04/20 04:49:16;;;;;;;51.43;23.23;;;;;;;;;;6123231;23;20170;-91
2021/04/20 04:52:21;;;;;;;49.67;22.80;;;;;;;;;;6122528;23;20169;-91
2021/04/20 04:55:26;;;;;;;52.50;22.90;;;;;;;;;;6124554;23;20185;-90
2021/04/20 04:58:31;;;;;;;48.67;23.03;;;;;;;;;;6127123;23;20365;-91
2021/04/20 05:01:37;;;;;;;50.87;23.67;;;;;;;;;;6124734;23;20570;-93
2021/04/20 05:04:42;;;;;;;49.83;22.50;;;;;;;;;;6124626;23;20216;-91
2021/04/20 05:07:47;;;;;;;52.70;24.40;;;;;;;;;;6125575;23;20170;-91
2021/04/20 05:10:52;;;;;;;63.87;28.07;;;;;;;;;;6125059;23;20201;-92
2021/04/20 05:13:57;;;;;;;58.60;28.60;;;;;;;;;;6125520;23;20217;-91
2021/04/20 05:17:03;;;;;;;51.50;25.03;;;;;;;;;;6126007;23;20459;-92
2021/04/20 05:20:11;;;;;;;52.97;26.13;;;;;;;;;;6126655;23;20225;-93
2021/04/20 05:23:16;;;;;;;55.37;25.50;;;;;;;;;;6124972;23;20166;-91
2021/04/20 05:26:20;;;;;;;52.13;24.60;;;;;;;;;;6127131;23;20252;-90
2021/04/20 05:29:26;;;;;;;54.70;24.67;;;;;;;;;;6124633;23;20174;-91
2021/04/20 05:32:32;;;;;;;57.80;26.30;;;;;;;;;;6127344;23;20197;-90
2021/04/20 05:35:37;;;;;;;52.33;25.07;;;;;;;;;;6123348;23;20185;-89
2021/04/20 05:38:50;;;;;;;57.63;27.90;;;;;;;;;;6123430;23;20202;-91
2021/04/20 05:41:55;;;;;;;49.73;23.87;;;;;;;;;;6125451;23;20197;-90
2021/04/20 05:45:00;;;;;;;55.93;24.87;;;;;;;;;;6125261;23;20169;-91
2021/04/20 05:48:06;;;;;;;49.20;24.30;;;;;;;;;;6124006;23;20189;-90
2021/04/20 05:51:12;;;;;;;57.43;24.87;;;;;;;;;;6125177;23;20172;-89
2021/04/20 05:54:16;;;;;;;59.92;30.70;;;;;;;;;;6125589;23;20401;-92
2021/04/20 05:57:21;;;;;;;60.73;27.70;;;;;;;;;;6123615;23;20267;-89
2021/04/20 06:00:28;;;;;;;65.23;28.00;;;;;;;;;;6125063;23;20678;-90
2021/04/20 06:03:34;;;;;;;58.00;26.70;;;;;;;;;;6123908;23;20221;-91
2021/04/20 06:06:40;;;;;;;59.00;27.03;;;;;;;;;;6124148;23;20176;-90
2021/04/20 06:09:46;;;;;;;55.53;25.83;;;;;;;;;;6122232;23;20233;-91
2021/04/20 06:12:52;;;;;;;57.17;27.33;;;;;;;;;;6122630;23;20190;-91
2021/04/20 06:15:57;;;;;;;90.50;42.13;;;;;;;;;;6122193;23;20193;-92
2021/04/20 06:19:03;;;;;;;49.50;25.67;;;;;;;;;;6123683;23;20657;-90
2021/04/20 06:22:10;;;;;;;52.77;26.33;;;;;;;;;;6124510;23;20503;-91
2021/04/20 06:25:16;;;;;;;52.83;25.57;;;;;;;;;;6124772;23;20246;-90
2021/04/20 06:28:21;;;;;;;54.53;24.97;;;;;;;;;;6127615;23;20173;-90
2021/04/20 06:31:26;;;;;;;49.80;25.40;;;;;;;;;;6123951;23;20168;-91
2021/04/20 06:34:32;;;;;;;73.37;37.90;;;;;;;;;;6124339;23;20168;-90
2021/04/20 06:37:45;;;;;;;51.20;26.17;;;;;;;;;;6125990;23;20626;-90
2021/04/20 06:40:52;;;;;;;53.50;26.43;;;;;;;;;;6128283;23;20259;-90
2021/04/20 06:43:59;;;;;;;55.93;26.63;;;;;;;;;;6126493;23;20206;-88
2021/04/20 06:47:09;;;;;;;58.07;27.20;;;;;;;;;;6124579;23;20177;-90
2021/04/20 06:50:23;;;;;;;49.70;24.87;;;;;;;;;;6126252;23;20195;-91
2021/04/20 06:53:40;;;;;;;48.93;25.53;;;;;;;;;;6125109;23;20173;-90
2021/04/20 06:56:50;;;;;;;50.57;25.23;;;;;;;;;;6123167;23;20173;-91
2021/04/20 07:00:00;;;;;;;50.67;25.23;;;;;;;;;;6123611;23;20178;-90
2021/04/20 07:03:10;;;;;;;50.85;24.48;;;;;;;;;;6124102;23;20238;-90
2021/04/20 07:06:22;;;;;;;52.13;26.50;;;;;;;;;;6122866;23;20169;-93
2021/04/20 07:09:28;;;;;;;54.87;25.43;;;;;;;;;;6120511;23;20194;-91
2021/04/20 07:12:34;;;;;;;59.80;25.40;;;;;;;;;;6121560;23;20185;-90
2021/04/20 07:15:40;;;;;;;51.43;26.00;;;;;;;;;;6121471;23;20216;-91
2021/04/20 07:19:00;;;;;;;50.58;24.75;;;;;;;;;;6126691;23;20758;-90
2021/04/20 07:22:20;;;;;;;52.80;24.83;;;;;;;;;;6123226;23;20177;-91
2021/04/20 07:25:46;;;;;;;54.03;24.67;;;;;;;;;;6126330;23;20149;-91
2021/04/20 07:28:54;;;;;;;55.70;26.00;;;;;;;;;;6124122;23;20176;-89
2021/04/20 07:32:05;;;;;;;57.80;31.10;;;;;;;;;;6124755;23;20427;-90
2021/04/20 07:35:12;;;;;;;48.90;25.17;;;;;;;;;;6125969;23;20165;-90
2021/04/20 07:38:22;;;;;;;53.47;26.73;;;;;;;;;;6128042;23;20225;-91
2021/04/20 20:15:09;;;;;;;22.47;11.90;;;;;;;;;;6106422;23;20248;-88
2021/04/20 20:18:14;;;;;;;24.87;12.20;;;;;;;;;;6120467;23;20245;-90
2021/04/20 20:21:20;;;;;;;19.23;10.97;;;;;;;;;;6118778;23;20606;-89
2021/04/20 20:24:28;;;;;;;18.37;10.80;;;;;;;;;;6118790;23;20257;-88
2021/04/20 20:27:35;;;;;;;24.70;12.07;;;;;;;;;;6120137;23;20170;-89
2021/04/20 20:30:42;;;;;;;22.60;11.97;;;;;;;;;;6121234;23;20225;-91
2021/04/20 20:33:52;;;;;;;22.33;11.47;;;;;;;;;;6121599;23;20172;-88
2021/04/20 20:37:00;;;;;;;23.50;12.23;;;;;;;;;;6120389;23;20172;-90
2021/04/20 20:40:06;;;;;;;21.20;11.80;;;;;;;;;;6118424;23;20230;-88
2021/04/20 20:43:17;;;;;;;24.87;12.63;;;;;;;;;;6121079;23;20525;-91
2021/04/20 20:46:29;;;;;;;22.63;12.30;;;;;;;;;;6121411;23;20219;-90
2021/04/20 20:49:35;;;;;;;19.13;10.73;;;;;;;;;;6121236;23;20196;-90
2021/04/20 20:52:49;;;;;;;21.87;11.57;;;;;;;;;;6121357;23;20169;-91
2021/04/20 20:55:54;;;;;;;19.00;11.53;;;;;;;;;;6119810;23;20164;-88
2021/04/20 20:59:02;;;;;;;22.97;11.83;;;;;;;;;;6119950;23;20566;-89
2021/04/20 21:02:08;;;;;;;21.90;12.13;;;;;;;;;;6122518;23;20169;-89
2021/04/20 21:05:17;;;;;;;19.83;11.50;;;;;;;;;;6121647;23;20628;-90
2021/04/20 21:08:24;;;;;;;24.30;12.50;;;;;;;;;;6121753;23;20169;-89
2021/04/20 21:11:30;;;;;;;18.63;11.23;;;;;;;;;;6123704;23;20174;-90
2021/04/20 21:14:37;;;;;;;21.53;11.90;;;;;;;;;;6121926;23;20169;-90
2021/04/20 21:17:44;;;;;;;21.97;11.63;;;;;;;;;;6122051;23;20269;-88
2021/04/20 21:20:57;;;;;;;23.43;12.30;;;;;;;;;;6120757;23;20214;-90
2021/04/20 21:24:03;;;;;;;27.93;12.60;;;;;;;;;;6119875;23;20165;-89
2021/04/20 21:27:11;;;;;;;24.23;11.73;;;;;;;;;;6120024;23;20221;-88
2021/04/20 21:30:19;;;;;;;22.17;12.53;;;;;;;;;;6121360;23;20244;-89
2021/04/20 21:33:31;;;;;;;23.57;12.27;;;;;;;;;;6121508;23;20213;-89
2021/04/20 21:36:36;;;;;;;25.93;12.43;;;;;;;;;;6121824;23;20496;-89
2021/04/20 21:39:42;;;;;;;23.17;12.10;;;;;;;;;;6122332;23;20193;-89
2021/04/20 21:42:47;;;;;;;23.27;12.13;;;;;;;;;;6122407;23;20237;-91
2021/04/20 21:46:00;;;;;;;22.50;11.73;;;;;;;;;;6121980;23;20657;-89
2021/04/20 21:49:06;;;;;;;23.80;12.97;;;;;;;;;;6122454;23;20169;-89
2021/04/20 21:52:12;;;;;;;26.63;12.33;;;;;;;;;;6118662;23;20177;-89
2021/04/20 21:55:18;;;;;;;23.60;12.57;;;;;;;;;;6120103;23;20629;-88
2021/04/20 21:58:23;;;;;;;20.43;11.50;;;;;;;;;;6120314;23;20205;-89
2021/04/20 22:01:39;;;;;;;23.60;12.07;;;;;;;;;;6120211;23;20507;-89
2021/04/20 22:04:45;;;;;;;20.63;12.20;;;;;;;;;;6119356;23;20221;-90
2021/04/20 22:07:51;;;;;;;21.57;11.87;;;;;;;;;;6118407;23;20216;-89
2021/04/20 22:11:05;;;;;;;21.77;11.70;;;;;;;;;;6119362;23;20193;-89
2021/04/20 22:14:11;;;;;;;21.30;11.60;;;;;;;;;;6118465;23;20503;-88
2021/04/20 22:17:16;;;;;;;21.10;12.03;;;;;;;;;;6119124;23;20169;-90
2021/04/20 22:20:27;;;;;;;29.07;13.00;;;;;;;;;;6118633;23;20212;-90
2021/04/20 22:23:32;;;;;;;27.77;13.60;;;;;;;;;;6120254;23;20172;-91
2021/04/20 22:26:36;;;;;;;25.93;12.60;;;;;;;;;;6119129;23;20249;-88
2021/04/20 22:29:41;;;;;;;25.80;13.63;;;;;;;;;;6118672;23;20197;-89
2021/04/20 22:32:46;;;;;;;23.07;12.50;;;;;;;;;;6120320;23;20222;-88
2021/04/20 22:36:01;;;;;;;28.40;12.17;;;;;;;;;;6120415;23;20504;-89
2021/04/20 22:39:07;;;;;;;22.47;12.50;;;;;;;;;;6119295;23;20217;-89
2021/04/20 22:42:11;;;;;;;23.40;12.70;;;;;;;;;;6121002;23;20681;-89
2021/04/20 22:45:18;;;;;;;26.70;13.77;;;;;;;;;;6120825;23;20169;-89
2021/04/20 22:48:24;;;;;;;25.00;13.53;;;;;;;;;;6119648;23;20172;-90
2021/04/20 22:51:31;;;;;;;24.27;13.10;;;;;;;;;;6120279;23;20202;-89
2021/04/20 22:54:39;;;;;;;27.67;13.50;;;;;;;;;;6120798;23;20177;-92
2021/04/20 22:57:45;;;;;;;25.57;12.77;;;;;;;;;;6120015;23;20172;-88
2021/04/20 23:00:51;;;;;;;25.73;13.20;;;;;;;;;;6119927;23;20185;-89
2021/04/20 23:03:57;;;;;;;23.20;12.40;;;;;;;;;;6120397;23;20217;-89
2021/04/20 23:07:04;;;;;;;25.80;12.87;;;;;;;;;;6119822;23;20216;-91
2021/04/20 23:10:09;;;;;;;27.93;14.17;;;;;;;;;;6119277;23;20181;-89
2021/04/20 23:13:15;;;;;;;25.23;12.37;;;;;;;;;;6121992;23;20209;-89
2021/04/20 23:16:19;;;;;;;24.20;12.53;;;;;;;;;;6121538;23;20192;-90
2021/04/20 23:19:24;;;;;;;23.90;12.73;;;;;;;;;;6120796;23;20192;-90
2021/04/20 23:22:34;;;;;;;25.93;12.70;;;;;;;;;;6121400;23;20193;-88
2021/04/20 23:25:43;;;;;;;28.00;12.20;;;;;;;;;;6117677;23;20156;-88
2021/04/20 23:28:54;;;;;;;22.57;11.80;;;;;;;;;;6118114;23;20243;-88
2021/04/20 23:32:01;;;;;;;22.63;12.67;;;;;;;;;;6118737;23;20169;-89
2021/04/20 23:35:06;;;;;;;24.90;12.17;;;;;;;;;;6119273;23;20181;-89
2021/04/20 23:38:12;;;;;;;26.20;13.33;;;;;;;;;;6118539;23;20213;-89
2021/04/20 23:41:17;;;;;;;28.67;14.10;;;;;;;;;;6117382;23;20168;-89
2021/04/20 23:44:23;;;;;;;26.33;14.03;;;;;;;;;;6117661;23;20177;-90
2021/04/20 23:47:30;;;;;;;28.93;15.03;;;;;;;;;;6118947;23;20165;-90
2021/04/20 23:50:35;;;;;;;27.80;14.27;;;;;;;;;;6116931;23;20253;-89
2021/04/20 23:53:41;;;;;;;28.73;14.50;;;;;;;;;;6118054;23;20189;-88
2021/04/20 23:56:47;;;;;;;27.50;14.47;;;;;;;;;;6117785;23;20172;-88
2021/04/20 23:59:52;;;;;;;31.47;15.07;;;;;;;;;;6119132;23;20533;-90
